sensor_id;sensor_type;location;lat;lon;timestamp;temperature;humidity
7101;DHT22;67978;48.710;8.720;2023-03-01T00:00:04;-2.90;1.00
7101;DHT22;67978;48.710;8.720;2023-03-01T00:02:33;-2.90;1.00
7101;DHT22;67978;48.710;8.720;2023-03-01T00:05:00;-2.90;1.00
7101;DHT22;67978;48.710;8.720;2023-03-01T00:07:28;-2.90;1.00
7101;DHT22;67978;48.710;8.720;2023-03-01T00:09:55;-3.00;1.00
7101;DHT22;67978;48.710;8.720;2023-03-01T00:12:22;-3.00;1.00
7101;DHT22;67978;48.710;8.720;2023-03-01T00:14:49;-3.10;1.00
7101;DHT22;67978;48.710;8.720;2023-03-01T00:17:15;-3.10;1.00
7101;DHT22;67978;48.710;8.720;2023-03-01T00:19:42;-3.20;1.00
7101;DHT22;67978;48.710;8.720;2023-03-01T00:22:09;-3.20;1.00
7101;DHT22;67978;48.710;8.720;2023-03-01T00:24:37;-3.20;1.00
7101;DHT22;67978;48.710;8.720;2023-03-01T00:27:04;-3.20;1.00
7101;DHT22;67978;48.710;8.720;2023-03-01T00:29:31;-3.20;1.00
7101;DHT22;67978;48.710;8.720;2023-03-01T00:31:58;-3.20;1.00
7101;DHT22;67978;48.710;8.720;2023-03-01T00:34:24;-3.20;1.00
7101;DHT22;67978;48.710;8.720;2023-03-01T00:36:51;-3.30;1.00
7101;DHT22;67978;48.710;8.720;2023-03-01T00:39:18;-3.30;1.00
7101;DHT22;67978;48.710;8.720;2023-03-01T00:41:46;-3.40;1.00
7101;DHT22;67978;48.710;8.720;2023-03-01T00:44:13;-3.40;1.00
7101;DHT22;67978;48.710;8.720;2023-03-01T00:46:40;-3.40;1.00
7101;DHT22;67978;48.710;8.720;2023-03-01T00:49:06;-3.40;1.00
7101;DHT22;67978;48.710;8.720;2023-03-01T00:51:33;-3.40;1.00
7101;DHT22;67978;48.710;8.720;2023-03-01T00:54:02;-3.40;1.00
7101;DHT22;67978;48.710;8.720;2023-03-01T00:56:29;-3.40;1.00
7101;DHT22;67978;48.710;8.720;2023-03-01T00:58:58;-3.50;1.00
7101;DHT22;67978;48.710;8.720;2023-03-01T01:01:26;-3.50;1.00
7101;DHT22;67978;48.710;8.720;2023-03-01T01:03:57;-3.50;1.00
7101;DHT22;67978;48.710;8.720;2023-03-01T01:06:27;-3.50;1.00
7101;DHT22;67978;48.710;8.720;2023-03-01T01:08:55;-3.50;1.00
7101;DHT22;67978;48.710;8.720;2023-03-01T01:11:26;-3.50;1.00
7101;DHT22;67978;48.710;8.720;2023-03-01T01:13:55;-3.50;1.00
7101;DHT22;67978;48.710;8.720;2023-03-01T01:16:26;-3.50;1.00
7101;DHT22;67978;48.710;8.720;2023-03-01T01:18:53;-3.50;1.00
7101;DHT22;67978;48.710;8.720;2023-03-01T01:21:23;-3.50;1.00
7101;DHT22;67978;48.710;8.720;2023-03-01T01:23:50;-3.50;1.00
7101;DHT22;67978;48.710;8.720;2023-03-01T01:26:20;-3.60;1.00
7101;DHT22;67978;48.710;8.720;2023-03-01T01:28:48;-3.60;1.00
7101;DHT22;67978;48.710;8.720;2023-03-01T01:31:15;-3.60;1.00
7101;DHT22;67978;48.710;8.720;2023-03-01T01:33:44;-3.60;1.00
7101;DHT22;67978;48.710;8.720;2023-03-01T01:36:11;-3.50;1.00
7101;DHT22;67978;48.710;8.720;2023-03-01T01:38:38;-3.50;1.00
7101;DHT22;67978;48.710;8.720;2023-03-01T01:41:07;-3.40;1.00
7101;DHT22;67978;48.710;8.720;2023-03-01T01:43:38;-3.50;1.00
7101;DHT22;67978;48.710;8.720;2023-03-01T01:46:15;-3.40;1.00
7101;DHT22;67978;48.710;8.720;2023-03-01T01:48:50;-3.50;1.00
7101;DHT22;67978;48.710;8.720;2023-03-01T01:51:24;-3.40;1.00
7101;DHT22;67978;48.710;8.720;2023-03-01T01:53:55;-3.40;1.00
7101;DHT22;67978;48.710;8.720;2023-03-01T01:56:24;-3.40;1.00
7101;DHT22;67978;48.710;8.720;2023-03-01T01:58:53;-3.40;1.00
7101;DHT22;67978;48.710;8.720;2023-03-01T02:01:20;-3.40;1.00
7101;DHT22;67978;48.710;8.720;2023-03-01T02:03:49;-3.50;1.00
7101;DHT22;67978;48.710;8.720;2023-03-01T02:06:20;-3.50;1.00
7101;DHT22;67978;48.710;8.720;2023-03-01T02:08:55;-3.50;1.00
7101;DHT22;67978;48.710;8.720;2023-03-01T02:11:24;-3.50;1.00
7101;DHT22;67978;48.710;8.720;2023-03-01T02:13:53;-3.50;1.00
7101;DHT22;67978;48.710;8.720;2023-03-01T02:16:20;-3.50;1.00
7101;DHT22;67978;48.710;8.720;2023-03-01T02:18:49;-3.50;1.00
7101;DHT22;67978;48.710;8.720;2023-03-01T02:21:30;-3.50;1.00
7101;DHT22;67978;48.710;8.720;2023-03-01T02:24:14;-3.50;1.00
7101;DHT22;67978;48.710;8.720;2023-03-01T02:26:51;-3.50;1.00
7101;DHT22;67978;48.710;8.720;2023-03-01T02:29:22;-3.50;1.00
7101;DHT22;67978;48.710;8.720;2023-03-01T02:31:51;-3.50;1.00
7101;DHT22;67978;48.710;8.720;2023-03-01T02:34:21;-3.50;1.00
7101;DHT22;67978;48.710;8.720;2023-03-01T02:36:53;-3.60;1.00
7101;DHT22;67978;48.710;8.720;2023-03-01T02:39:25;-3.60;1.00
7101;DHT22;67978;48.710;8.720;2023-03-01T02:41:54;-3.60;1.00
7101;DHT22;67978;48.710;8.720;2023-03-01T02:44:24;-3.60;1.00
7101;DHT22;67978;48.710;8.720;2023-03-01T02:46:53;-3.70;1.00
7101;DHT22;67978;48.710;8.720;2023-03-01T02:49:24;-3.70;1.00
7101;DHT22;67978;48.710;8.720;2023-03-01T02:52:21;-3.70;1.00
7101;DHT22;67978;48.710;8.720;2023-03-01T02:54:57;-3.80;1.00
7101;DHT22;67978;48.710;8.720;2023-03-01T02:57:27;-3.80;1.00
7101;DHT22;67978;48.710;8.720;2023-03-01T02:59:58;-3.80;1.00
7101;DHT22;67978;48.710;8.720;2023-03-01T03:02:28;-3.80;1.00
7101;DHT22;67978;48.710;8.720;2023-03-01T03:05:04;-3.90;1.00
7101;DHT22;67978;48.710;8.720;2023-03-01T03:07:34;-3.80;1.00
7101;DHT22;67978;48.710;8.720;2023-03-01T03:10:02;-3.80;1.00
7101;DHT22;67978;48.710;8.720;2023-03-01T03:12:33;-3.80;1.00
7101;DHT22;67978;48.710;8.720;2023-03-01T03:15:01;-3.70;1.00
7101;DHT22;67978;48.710;8.720;2023-03-01T03:17:34;-3.60;1.00
7101;DHT22;67978;48.710;8.720;2023-03-01T03:20:06;-3.60;1.00
7101;DHT22;67978;48.710;8.720;2023-03-01T03:22:37;-3.60;1.00
7101;DHT22;67978;48.710;8.720;2023-03-01T03:25:05;-3.60;1.00
7101;DHT22;67978;48.710;8.720;2023-03-01T03:27:35;-3.50;1.00
7101;DHT22;67978;48.710;8.720;2023-03-01T03:30:07;-3.40;1.00
7101;DHT22;67978;48.710;8.720;2023-03-01T03:32:35;-3.40;1.00
7101;DHT22;67978;48.710;8.720;2023-03-01T03:35:02;-3.40;1.00
7101;DHT22;67978;48.710;8.720;2023-03-01T03:37:41;-3.30;1.00
7101;DHT22;67978;48.710;8.720;2023-03-01T03:40:26;-3.30;1.00
7101;DHT22;67978;48.710;8.720;2023-03-01T03:42:55;-3.20;1.00
7101;DHT22;67978;48.710;8.720;2023-03-01T03:45:23;-3.30;1.00
7101;DHT22;67978;48.710;8.720;2023-03-01T03:47:50;-3.20;1.00
7101;DHT22;67978;48.710;8.720;2023-03-01T03:50:17;-3.20;1.00
7101;DHT22;67978;48.710;8.720;2023-03-01T03:52:44;-3.10;1.00
7101;DHT22;67978;48.710;8.720;2023-03-01T03:55:12;-3.20;1.00
7101;DHT22;67978;48.710;8.720;2023-03-01T03:57:40;-3.20;1.00
7101;DHT22;67978;48.710;8.720;2023-03-01T04:00:10;-3.10;1.00
7101;DHT22;67978;48.710;8.720;2023-03-01T04:02:39;-3.10;1.00
7101;DHT22;67978;48.710;8.720;2023-03-01T04:05:07;-3.10;1.00
7101;DHT22;67978;48.710;8.720;2023-03-01T04:07:35;-3.00;1.00
7101;DHT22;67978;48.710;8.720;2023-03-01T04:10:04;-3.00;1.00
7101;DHT22;67978;48.710;8.720;2023-03-01T04:12:35;-3.00;1.00
7101;DHT22;67978;48.710;8.720;2023-03-01T04:15:03;-3.10;1.00
7101;DHT22;67978;48.710;8.720;2023-03-01T04:17:39;-3.00;1.00
7101;DHT22;67978;48.710;8.720;2023-03-01T04:20:08;-3.00;1.00
7101;DHT22;67978;48.710;8.720;2023-03-01T04:22:36;-3.00;1.00
7101;DHT22;67978;48.710;8.720;2023-03-01T04:25:03;-3.00;1.00
7101;DHT22;67978;48.710;8.720;2023-03-01T04:27:32;-3.00;1.00
7101;DHT22;67978;48.710;8.720;2023-03-01T04:29:59;-3.00;1.00
7101;DHT22;67978;48.710;8.720;2023-03-01T04:32:26;-2.90;1.00
7101;DHT22;67978;48.710;8.720;2023-03-01T04:34:54;-2.90;1.00
7101;DHT22;67978;48.710;8.720;2023-03-01T04:37:21;-2.90;1.00
7101;DHT22;67978;48.710;8.720;2023-03-01T04:39:49;-2.90;1.00
7101;DHT22;67978;48.710;8.720;2023-03-01T04:42:16;-2.90;1.00
7101;DHT22;67978;48.710;8.720;2023-03-01T04:44:43;-2.90;1.00
7101;DHT22;67978;48.710;8.720;2023-03-01T04:47:10;-2.90;1.00
7101;DHT22;67978;48.710;8.720;2023-03-01T04:49:36;-2.90;1.00
7101;DHT22;67978;48.710;8.720;2023-03-01T04:52:05;-2.90;1.00
7101;DHT22;67978;48.710;8.720;2023-03-01T04:54:32;-2.90;1.00
7101;DHT22;67978;48.710;8.720;2023-03-01T04:57:00;-2.90;1.00
7101;DHT22;67978;48.710;8.720;2023-03-01T04:59:27;-2.90;1.00
7101;DHT22;67978;48.710;8.720;2023-03-01T05:01:55;-2.90;1.00
7101;DHT22;67978;48.710;8.720;2023-03-01T05:04:22;-2.80;1.00
7101;DHT22;67978;48.710;8.720;2023-03-01T05:06:49;-2.90;1.00
7101;DHT22;67978;48.710;8.720;2023-03-01T05:09:17;-2.80;1.00
7101;DHT22;67978;48.710;8.720;2023-03-01T05:11:44;-2.80;1.00
7101;DHT22;67978;48.710;8.720;2023-03-01T05:14:11;-2.80;1.00
7101;DHT22;67978;48.710;8.720;2023-03-01T05:16:38;-2.80;1.00
7101;DHT22;67978;48.710;8.720;2023-03-01T05:19:05;-2.80;1.00
7101;DHT22;67978;48.710;8.720;2023-03-01T05:21:37;-2.80;1.00
7101;DHT22;67978;48.710;8.720;2023-03-01T05:24:26;-2.80;1.00
7101;DHT22;67978;48.710;8.720;2023-03-01T05:26:54;-2.80;1.00
7101;DHT22;67978;48.710;8.720;2023-03-01T05:29:21;-2.80;1.00
7101;DHT22;67978;48.710;8.720;2023-03-01T05:31:51;-2.80;1.00
7101;DHT22;67978;48.710;8.720;2023-03-01T05:34:19;-2.80;1.00
7101;DHT22;67978;48.710;8.720;2023-03-01T05:36:49;-2.80;1.00
7101;DHT22;67978;48.710;8.720;2023-03-01T05:39:19;-2.70;1.00
7101;DHT22;67978;48.710;8.720;2023-03-01T05:41:52;-2.70;1.00
7101;DHT22;67978;48.710;8.720;2023-03-01T05:44:19;-2.70;1.00
7101;DHT22;67978;48.710;8.720;2023-03-01T05:46:46;-2.70;1.00
7101;DHT22;67978;48.710;8.720;2023-03-01T05:49:13;-2.70;1.00
7101;DHT22;67978;48.710;8.720;2023-03-01T05:51:40;-2.80;1.00
7101;DHT22;67978;48.710;8.720;2023-03-01T05:54:08;-2.70;1.00
7101;DHT22;67978;48.710;8.720;2023-03-01T05:56:36;-2.70;1.00
7101;DHT22;67978;48.710;8.720;2023-03-01T05:59:05;-2.70;1.00
7101;DHT22;67978;48.710;8.720;2023-03-01T06:01:32;-2.70;1.00
7101;DHT22;67978;48.710;8.720;2023-03-01T06:03:58;-2.70;1.00
7101;DHT22;67978;48.710;8.720;2023-03-01T06:06:25;-2.70;1.00
7101;DHT22;67978;48.710;8.720;2023-03-01T06:08:53;-2.70;1.00
7101;DHT22;67978;48.710;8.720;2023-03-01T06:11:20;-2.70;1.00
7101;DHT22;67978;48.710;8.720;2023-03-01T06:13:47;-2.70;1.00
7101;DHT22;67978;48.710;8.720;2023-03-01T06:16:15;-2.70;1.00
7101;DHT22;67978;48.710;8.720;2023-03-01T06:18:42;-2.70;1.00
7101;DHT22;67978;48.710;8.720;2023-03-01T06:21:09;-2.60;1.00
7101;DHT22;67978;48.710;8.720;2023-03-01T06:23:36;-2.70;1.00
7101;DHT22;67978;48.710;8.720;2023-03-01T06:26:05;-2.60;1.00
7101;DHT22;67978;48.710;8.720;2023-03-01T06:28:32;-2.60;1.00
7101;DHT22;67978;48.710;8.720;2023-03-01T06:30:59;-2.50;1.00
7101;DHT22;67978;48.710;8.720;2023-03-01T06:33:27;-2.50;1.00
7101;DHT22;67978;48.710;8.720;2023-03-01T06:35:54;-2.40;1.00
7101;DHT22;67978;48.710;8.720;2023-03-01T06:38:22;-2.40;1.00
7101;DHT22;67978;48.710;8.720;2023-03-01T06:40:51;-2.40;1.00
7101;DHT22;67978;48.710;8.720;2023-03-01T06:43:19;-2.30;1.00
7101;DHT22;67978;48.710;8.720;2023-03-01T06:45:46;-2.30;1.00
7101;DHT22;67978;48.710;8.720;2023-03-01T06:48:12;-2.30;1.00
7101;DHT22;67978;48.710;8.720;2023-03-01T06:50:40;-2.30;1.00
7101;DHT22;67978;48.710;8.720;2023-03-01T06:53:07;-2.30;1.00
7101;DHT22;67978;48.710;8.720;2023-03-01T06:55:34;-2.20;1.00
7101;DHT22;67978;48.710;8.720;2023-03-01T06:58:02;-2.20;1.00
7101;DHT22;67978;48.710;8.720;2023-03-01T07:00:29;-2.10;1.00
7101;DHT22;67978;48.710;8.720;2023-03-01T07:02:58;-2.10;1.00
7101;DHT22;67978;48.710;8.720;2023-03-01T07:05:27;-2.10;1.00
7101;DHT22;67978;48.710;8.720;2023-03-01T07:07:56;-2.10;1.00
7101;DHT22;67978;48.710;8.720;2023-03-01T07:10:23;-2.10;1.00
7101;DHT22;67978;48.710;8.720;2023-03-01T07:12:50;-2.00;1.00
7101;DHT22;67978;48.710;8.720;2023-03-01T07:15:17;-2.00;1.00
7101;DHT22;67978;48.710;8.720;2023-03-01T07:17:43;-1.90;1.00
7101;DHT22;67978;48.710;8.720;2023-03-01T07:20:13;-1.90;1.00
7101;DHT22;67978;48.710;8.720;2023-03-01T07:22:40;-1.80;1.00
7101;DHT22;67978;48.710;8.720;2023-03-01T07:25:10;-1.80;1.00
7101;DHT22;67978;48.710;8.720;2023-03-01T07:27:37;-1.70;1.00
7101;DHT22;67978;48.710;8.720;2023-03-01T07:30:04;-1.70;1.00
7101;DHT22;67978;48.710;8.720;2023-03-01T07:32:32;-1.70;1.00
7101;DHT22;67978;48.710;8.720;2023-03-01T07:34:59;-1.70;1.00
7101;DHT22;67978;48.710;8.720;2023-03-01T07:37:26;-1.60;1.00
7101;DHT22;67978;48.710;8.720;2023-03-01T07:39:53;-1.60;1.00
7101;DHT22;67978;48.710;8.720;2023-03-01T07:42:21;-1.50;1.00
7101;DHT22;67978;48.710;8.720;2023-03-01T07:44:47;-1.50;1.00
7101;DHT22;67978;48.710;8.720;2023-03-01T07:47:14;-1.50;1.00
7101;DHT22;67978;48.710;8.720;2023-03-01T07:49:41;-1.50;1.00
7101;DHT22;67978;48.710;8.720;2023-03-01T07:52:10;-1.50;1.00
7101;DHT22;67978;48.710;8.720;2023-03-01T07:54:37;-1.50;1.00
7101;DHT22;67978;48.710;8.720;2023-03-01T07:57:04;-1.50;1.00
7101;DHT22;67978;48.710;8.720;2023-03-01T07:59:32;-1.40;1.00
7101;DHT22;67978;48.710;8.720;2023-03-01T08:01:59;-1.40;1.00
7101;DHT22;67978;48.710;8.720;2023-03-01T08:04:26;-1.40;1.00
7101;DHT22;67978;48.710;8.720;2023-03-01T08:06:53;-1.30;1.00
7101;DHT22;67978;48.710;8.720;2023-03-01T08:09:20;-1.30;1.00
7101;DHT22;67978;48.710;8.720;2023-03-01T08:11:47;-1.30;1.00
7101;DHT22;67978;48.710;8.720;2023-03-01T08:14:14;-1.20;1.00
7101;DHT22;67978;48.710;8.720;2023-03-01T08:16:42;-1.20;1.00
7101;DHT22;67978;48.710;8.720;2023-03-01T08:19:11;-1.20;1.00
7101;DHT22;67978;48.710;8.720;2023-03-01T08:21:38;-1.20;1.00
7101;DHT22;67978;48.710;8.720;2023-03-01T08:24:06;-1.10;1.00
7101;DHT22;67978;48.710;8.720;2023-03-01T08:26:35;-1.10;1.00
7101;DHT22;67978;48.710;8.720;2023-03-01T08:29:03;-1.10;1.00
7101;DHT22;67978;48.710;8.720;2023-03-01T08:31:32;-1.00;1.00
7101;DHT22;67978;48.710;8.720;2023-03-01T08:34:04;-1.00;1.00
7101;DHT22;67978;48.710;8.720;2023-03-01T08:36:36;-0.90;1.00
7101;DHT22;67978;48.710;8.720;2023-03-01T08:39:05;-0.90;1.00
7101;DHT22;67978;48.710;8.720;2023-03-01T08:41:32;-0.90;1.00
7101;DHT22;67978;48.710;8.720;2023-03-01T08:43:59;-0.80;1.00
7101;DHT22;67978;48.710;8.720;2023-03-01T08:46:26;-0.80;1.00
7101;DHT22;67978;48.710;8.720;2023-03-01T08:48:54;-0.80;1.00
7101;DHT22;67978;48.710;8.720;2023-03-01T08:51:22;-0.70;1.00
7101;DHT22;67978;48.710;8.720;2023-03-01T08:53:50;-0.70;1.00
7101;DHT22;67978;48.710;8.720;2023-03-01T08:56:17;-0.70;1.00
7101;DHT22;67978;48.710;8.720;2023-03-01T08:58:46;-0.60;1.00
7101;DHT22;67978;48.710;8.720;2023-03-01T09:01:15;-0.50;1.00
7101;DHT22;67978;48.710;8.720;2023-03-01T09:03:43;-0.50;1.00
7101;DHT22;67978;48.710;8.720;2023-03-01T09:06:11;-0.50;1.00
7101;DHT22;67978;48.710;8.720;2023-03-01T09:08:44;-0.50;1.00
7101;DHT22;67978;48.710;8.720;2023-03-01T09:11:14;-0.50;1.00
7101;DHT22;67978;48.710;8.720;2023-03-01T09:13:42;-0.50;1.00
7101;DHT22;67978;48.710;8.720;2023-03-01T09:16:12;-0.40;1.00
7101;DHT22;67978;48.710;8.720;2023-03-01T09:18:39;-0.40;1.00
7101;DHT22;67978;48.710;8.720;2023-03-01T09:21:07;-0.30;1.00
7101;DHT22;67978;48.710;8.720;2023-03-01T09:23:36;-0.30;1.00
7101;DHT22;67978;48.710;8.720;2023-03-01T09:26:06;-0.20;1.00
7101;DHT22;67978;48.710;8.720;2023-03-01T09:28:34;-0.20;1.00
7101;DHT22;67978;48.710;8.720;2023-03-01T09:31:02;-0.20;1.00
7101;DHT22;67978;48.710;8.720;2023-03-01T09:33:30;-0.10;1.00
7101;DHT22;67978;48.710;8.720;2023-03-01T09:35:58;-0.10;1.00
7101;DHT22;67978;48.710;8.720;2023-03-01T09:38:26;-0.10;1.00
7101;DHT22;67978;48.710;8.720;2023-03-01T09:40:53;0.00;1.00
7101;DHT22;67978;48.710;8.720;2023-03-01T09:43:26;0.00;1.00
7101;DHT22;67978;48.710;8.720;2023-03-01T09:46:00;0.00;1.00
7101;DHT22;67978;48.710;8.720;2023-03-01T09:48:37;0.00;1.00
7101;DHT22;67978;48.710;8.720;2023-03-01T09:51:14;0.00;1.00
7101;DHT22;67978;48.710;8.720;2023-03-01T09:53:43;0.10;1.00
7101;DHT22;67978;48.710;8.720;2023-03-01T09:56:16;0.10;1.00
7101;DHT22;67978;48.710;8.720;2023-03-01T09:58:52;0.10;1.00
7101;DHT22;67978;48.710;8.720;2023-03-01T10:01:29;0.20;1.00
7101;DHT22;67978;48.710;8.720;2023-03-01T10:04:24;0.20;1.00
7101;DHT22;67978;48.710;8.720;2023-03-01T10:07:04;0.40;1.00
7101;DHT22;67978;48.710;8.720;2023-03-01T10:09:36;0.40;1.00
7101;DHT22;67978;48.710;8.720;2023-03-01T10:12:08;0.60;1.00
7101;DHT22;67978;48.710;8.720;2023-03-01T10:14:40;0.70;1.00
7101;DHT22;67978;48.710;8.720;2023-03-01T10:17:17;0.80;1.00
7101;DHT22;67978;48.710;8.720;2023-03-01T10:19:51;0.80;1.00
7101;DHT22;67978;48.710;8.720;2023-03-01T10:22:20;0.90;1.00
7101;DHT22;67978;48.710;8.720;2023-03-01T10:24:49;0.80;1.00
7101;DHT22;67978;48.710;8.720;2023-03-01T10:27:21;0.90;1.00
7101;DHT22;67978;48.710;8.720;2023-03-01T10:29:56;0.90;1.00
7101;DHT22;67978;48.710;8.720;2023-03-01T10:32:26;1.00;1.00
7101;DHT22;67978;48.710;8.720;2023-03-01T10:34:53;1.10;1.00
7101;DHT22;67978;48.710;8.720;2023-03-01T10:37:21;1.10;1.00
7101;DHT22;67978;48.710;8.720;2023-03-01T10:39:58;1.20;1.00
7101;DHT22;67978;48.710;8.720;2023-03-01T10:42:29;1.20;1.00
7101;DHT22;67978;48.710;8.720;2023-03-01T10:45:15;1.30;1.00
7101;DHT22;67978;48.710;8.720;2023-03-01T10:47:43;1.30;1.00
7101;DHT22;67978;48.710;8.720;2023-03-01T10:50:18;1.40;1.00
7101;DHT22;67978;48.710;8.720;2023-03-01T10:52:57;1.40;1.00
7101;DHT22;67978;48.710;8.720;2023-03-01T10:55:30;1.30;1.00
7101;DHT22;67978;48.710;8.720;2023-03-01T10:58:15;1.40;1.00
7101;DHT22;67978;48.710;8.720;2023-03-01T11:00:50;1.40;1.00
7101;DHT22;67978;48.710;8.720;2023-03-01T11:03:21;1.40;1.00
7101;DHT22;67978;48.710;8.720;2023-03-01T11:05:52;1.50;1.00
7101;DHT22;67978;48.710;8.720;2023-03-01T11:08:41;1.50;1.00
7101;DHT22;67978;48.710;8.720;2023-03-01T11:11:20;1.60;1.00
7101;DHT22;67978;48.710;8.720;2023-03-01T11:13:55;1.60;1.00
7101;DHT22;67978;48.710;8.720;2023-03-01T11:16:33;1.70;1.00
7101;DHT22;67978;48.710;8.720;2023-03-01T11:19:18;1.60;1.00
7101;DHT22;67978;48.710;8.720;2023-03-01T11:21:57;1.60;1.00
7101;DHT22;67978;48.710;8.720;2023-03-01T11:24:40;1.60;1.00
7101;DHT22;67978;48.710;8.720;2023-03-01T11:27:19;1.60;1.00
7101;DHT22;67978;48.710;8.720;2023-03-01T11:29:52;1.70;1.00
7101;DHT22;67978;48.710;8.720;2023-03-01T11:32:25;1.80;1.00
7101;DHT22;67978;48.710;8.720;2023-03-01T11:34:57;1.80;1.00
7101;DHT22;67978;48.710;8.720;2023-03-01T11:37:38;1.90;1.00
7101;DHT22;67978;48.710;8.720;2023-03-01T11:40:16;1.90;1.00
7101;DHT22;67978;48.710;8.720;2023-03-01T11:42:56;2.00;1.00
7101;DHT22;67978;48.710;8.720;2023-03-01T11:45:39;2.00;1.00
7101;DHT22;67978;48.710;8.720;2023-03-01T11:51:21;2.00;1.00
7101;DHT22;67978;48.710;8.720;2023-03-01T11:54:06;2.00;1.00
7101;DHT22;67978;48.710;8.720;2023-03-01T11:56:43;2.00;1.00
7101;DHT22;67978;48.710;8.720;2023-03-01T11:59:41;2.10;1.00
7101;DHT22;67978;48.710;8.720;2023-03-01T12:02:28;2.20;1.00
7101;DHT22;67978;48.710;8.720;2023-03-01T12:05:20;2.20;1.00
7101;DHT22;67978;48.710;8.720;2023-03-01T12:08:09;2.30;1.00
7101;DHT22;67978;48.710;8.720;2023-03-01T12:10:46;2.20;1.00
7101;DHT22;67978;48.710;8.720;2023-03-01T12:13:46;2.30;1.00
7101;DHT22;67978;48.710;8.720;2023-03-01T12:16:55;2.20;1.00
7101;DHT22;67978;48.710;8.720;2023-03-01T12:19:34;2.30;1.00
7101;DHT22;67978;48.710;8.720;2023-03-01T12:22:17;2.30;1.00
7101;DHT22;67978;48.710;8.720;2023-03-01T12:28:18;2.30;1.00
7101;DHT22;67978;48.710;8.720;2023-03-01T12:31:22;2.40;1.00
7101;DHT22;67978;48.710;8.720;2023-03-01T12:34:05;2.60;1.00
7101;DHT22;67978;48.710;8.720;2023-03-01T12:37:02;2.60;1.00
7101;DHT22;67978;48.710;8.720;2023-03-01T12:39:47;2.70;1.00
7101;DHT22;67978;48.710;8.720;2023-03-01T12:42:26;2.60;1.00
7101;DHT22;67978;48.710;8.720;2023-03-01T12:45:16;2.60;1.00
7101;DHT22;67978;48.710;8.720;2023-03-01T12:48:11;2.60;1.00
7101;DHT22;67978;48.710;8.720;2023-03-01T12:50:47;2.70;1.00
7101;DHT22;67978;48.710;8.720;2023-03-01T12:53:22;2.70;1.00
7101;DHT22;67978;48.710;8.720;2023-03-01T12:55:51;2.80;1.00
7101;DHT22;67978;48.710;8.720;2023-03-01T12:58:24;2.80;1.00
7101;DHT22;67978;48.710;8.720;2023-03-01T13:01:04;2.90;1.00
7101;DHT22;67978;48.710;8.720;2023-03-01T13:03:55;3.20;1.00
7101;DHT22;67978;48.710;8.720;2023-03-01T13:06:33;3.20;1.00
7101;DHT22;67978;48.710;8.720;2023-03-01T13:09:18;3.30;1.00
7101;DHT22;67978;48.710;8.720;2023-03-01T13:11:47;3.20;1.00
7101;DHT22;67978;48.710;8.720;2023-03-01T13:14:36;3.20;1.00
7101;DHT22;67978;48.710;8.720;2023-03-01T13:17:03;3.20;1.00
7101;DHT22;67978;48.710;8.720;2023-03-01T13:19:30;3.20;1.00
7101;DHT22;67978;48.710;8.720;2023-03-01T13:22:27;3.30;1.00
7101;DHT22;67978;48.710;8.720;2023-03-01T13:25:15;3.30;1.00
7101;DHT22;67978;48.710;8.720;2023-03-01T13:27:43;3.20;1.00
7101;DHT22;67978;48.710;8.720;2023-03-01T13:30:41;3.20;1.00
7101;DHT22;67978;48.710;8.720;2023-03-01T13:33:42;3.20;1.00
7101;DHT22;67978;48.710;8.720;2023-03-01T13:36:11;3.20;1.00
7101;DHT22;67978;48.710;8.720;2023-03-01T13:39:29;3.30;1.00
7101;DHT22;67978;48.710;8.720;2023-03-01T13:41:59;3.30;1.00
7101;DHT22;67978;48.710;8.720;2023-03-01T13:44:30;3.30;1.00
7101;DHT22;67978;48.710;8.720;2023-03-01T13:47:05;3.40;1.00
7101;DHT22;67978;48.710;8.720;2023-03-01T13:49:43;3.40;1.00
7101;DHT22;67978;48.710;8.720;2023-03-01T13:52:36;3.30;1.00
7101;DHT22;67978;48.710;8.720;2023-03-01T13:55:16;3.40;1.00
7101;DHT22;67978;48.710;8.720;2023-03-01T13:57:47;3.40;1.00
7101;DHT22;67978;48.710;8.720;2023-03-01T14:00:33;3.60;1.00
7101;DHT22;67978;48.710;8.720;2023-03-01T14:03:13;3.60;1.00
7101;DHT22;67978;48.710;8.720;2023-03-01T14:05:42;3.60;1.00
7101;DHT22;67978;48.710;8.720;2023-03-01T14:08:21;3.60;1.00
7101;DHT22;67978;48.710;8.720;2023-03-01T14:14:06;3.70;1.00
7101;DHT22;67978;48.710;8.720;2023-03-01T14:16:48;3.70;1.00
7101;DHT22;67978;48.710;8.720;2023-03-01T14:19:24;3.70;1.00
7101;DHT22;67978;48.710;8.720;2023-03-01T14:21:59;3.70;1.00
7101;DHT22;67978;48.710;8.720;2023-03-01T14:24:35;3.70;1.00
7101;DHT22;67978;48.710;8.720;2023-03-01T14:27:11;3.70;1.00
7101;DHT22;67978;48.710;8.720;2023-03-01T14:29:39;3.60;1.00
7101;DHT22;67978;48.710;8.720;2023-03-01T14:32:12;3.60;1.00
7101;DHT22;67978;48.710;8.720;2023-03-01T14:34:43;3.60;1.00
7101;DHT22;67978;48.710;8.720;2023-03-01T14:37:17;3.60;1.00
7101;DHT22;67978;48.710;8.720;2023-03-01T14:39:47;3.60;1.00
7101;DHT22;67978;48.710;8.720;2023-03-01T14:42:15;3.60;1.00
7101;DHT22;67978;48.710;8.720;2023-03-01T14:44:43;3.50;1.00
7101;DHT22;67978;48.710;8.720;2023-03-01T14:47:13;3.50;1.00
7101;DHT22;67978;48.710;8.720;2023-03-01T14:49:42;3.80;1.00
7101;DHT22;67978;48.710;8.720;2023-03-01T14:52:18;3.70;1.00
7101;DHT22;67978;48.710;8.720;2023-03-01T14:54:50;3.70;1.00
7101;DHT22;67978;48.710;8.720;2023-03-01T14:57:21;3.60;1.00
7101;DHT22;67978;48.710;8.720;2023-03-01T14:59:50;3.50;1.00
7101;DHT22;67978;48.710;8.720;2023-03-01T15:02:22;3.60;1.00
7101;DHT22;67978;48.710;8.720;2023-03-01T15:04:52;3.50;1.00
7101;DHT22;67978;48.710;8.720;2023-03-01T15:07:23;3.50;1.00
7101;DHT22;67978;48.710;8.720;2023-03-01T15:09:55;3.50;1.00
7101;DHT22;67978;48.710;8.720;2023-03-01T15:12:35;3.40;1.00
7101;DHT22;67978;48.710;8.720;2023-03-01T15:15:28;3.50;1.00
7101;DHT22;67978;48.710;8.720;2023-03-01T15:17:59;3.50;1.00
7101;DHT22;67978;48.710;8.720;2023-03-01T15:20:29;3.50;1.00
7101;DHT22;67978;48.710;8.720;2023-03-01T15:23:01;3.40;1.00
7101;DHT22;67978;48.710;8.720;2023-03-01T15:25:31;3.50;1.00
7101;DHT22;67978;48.710;8.720;2023-03-01T15:28:00;3.50;1.00
7101;DHT22;67978;48.710;8.720;2023-03-01T15:30:31;3.50;1.00
7101;DHT22;67978;48.710;8.720;2023-03-01T15:33:18;3.50;1.00
7101;DHT22;67978;48.710;8.720;2023-03-01T15:35:54;3.50;1.00
7101;DHT22;67978;48.710;8.720;2023-03-01T15:38:31;3.40;1.00
7101;DHT22;67978;48.710;8.720;2023-03-01T15:41:22;3.40;1.00
7101;DHT22;67978;48.710;8.720;2023-03-01T15:43:51;3.40;1.00
7101;DHT22;67978;48.710;8.720;2023-03-01T15:46:24;3.40;1.00
7101;DHT22;67978;48.710;8.720;2023-03-01T15:48:55;3.40;1.00
7101;DHT22;67978;48.710;8.720;2023-03-01T15:51:29;3.30;1.00
7101;DHT22;67978;48.710;8.720;2023-03-01T15:54:00;3.30;1.00
7101;DHT22;67978;48.710;8.720;2023-03-01T15:56:31;3.20;1.00
7101;DHT22;67978;48.710;8.720;2023-03-01T15:59:00;3.20;1.00
7101;DHT22;67978;48.710;8.720;2023-03-01T16:01:29;3.30;1.00
7101;DHT22;67978;48.710;8.720;2023-03-01T16:03:56;3.20;1.00
7101;DHT22;67978;48.710;8.720;2023-03-01T16:06:24;3.20;1.00
7101;DHT22;67978;48.710;8.720;2023-03-01T16:08:51;3.20;1.00
7101;DHT22;67978;48.710;8.720;2023-03-01T16:11:19;3.20;1.00
7101;DHT22;67978;48.710;8.720;2023-03-01T16:13:48;3.10;1.00
7101;DHT22;67978;48.710;8.720;2023-03-01T16:16:16;3.10;1.00
7101;DHT22;67978;48.710;8.720;2023-03-01T16:18:44;3.00;1.00
7101;DHT22;67978;48.710;8.720;2023-03-01T16:21:14;3.00;1.00
7101;DHT22;67978;48.710;8.720;2023-03-01T16:23:43;3.00;1.00
7101;DHT22;67978;48.710;8.720;2023-03-01T16:26:11;2.90;1.00
7101;DHT22;67978;48.710;8.720;2023-03-01T16:28:38;2.90;1.00
7101;DHT22;67978;48.710;8.720;2023-03-01T16:31:07;2.90;1.00
7101;DHT22;67978;48.710;8.720;2023-03-01T16:33:34;2.90;1.00
7101;DHT22;67978;48.710;8.720;2023-03-01T16:36:05;2.90;1.00
7101;DHT22;67978;48.710;8.720;2023-03-01T16:38:33;2.80;1.00
7101;DHT22;67978;48.710;8.720;2023-03-01T16:41:00;2.80;1.00
7101;DHT22;67978;48.710;8.720;2023-03-01T16:43:27;2.80;1.00
7101;DHT22;67978;48.710;8.720;2023-03-01T16:45:54;2.80;1.00